sensor_id;sensor_type;location;lat;lon;timestamp;pressure;altitude;pressure_sealevel;temperature;humidity
79077;BME280;68477;42.698;23.342;2024-02-15T00:01:39;95799.34;;;4.06;64.39
79077;BME280;68477;42.698;23.342;2024-02-15T00:04:04;95804.69;;;4.16;64.12
79077;BME280;68477;42.698;23.342;2024-02-15T00:06:31;95806.25;;;3.85;66.04
79077;BME280;68477;42.698;23.342;2024-02-15T00:08:56;95807.66;;;3.89;65.95
79077;BME280;68477;42.698;23.342;2024-02-15T00:11:22;95804.47;;;3.97;66.06
79077;BME280;68477;42.698;23.342;2024-02-15T00:13:47;95805.41;;;3.96;65.86
79077;BME280;68477;42.698;23.342;2024-02-15T00:16:16;95801.63;;;3.89;65.17
79077;BME280;68477;42.698;23.342;2024-02-15T00:18:41;95805.88;;;4.01;64.86
79077;BME280;68477;42.698;23.342;2024-02-15T00:21:07;95803.72;;;3.84;65.11
79077;BME280;68477;42.698;23.342;2024-02-15T00:23:32;95798.91;;;3.90;65.90
79077;BME280;68477;42.698;23.342;2024-02-15T00:25:58;95812.03;;;3.77;65.31
79077;BME280;68477;42.698;23.342;2024-02-15T00:28:24;95808.09;;;3.72;66.19
79077;BME280;68477;42.698;23.342;2024-02-15T00:30:52;95817.94;;;3.79;65.56
79077;BME280;68477;42.698;23.342;2024-02-15T00:33:17;95813.44;;;3.82;66.07
79077;BME280;68477;42.698;23.342;2024-02-15T00:35:43;95820.44;;;4.03;64.87
79077;BME280;68477;42.698;23.342;2024-02-15T00:38:08;95811.66;;;3.82;65.77
79077;BME280;68477;42.698;23.342;2024-02-15T00:40:34;95818.91;;;4.01;64.56
79077;BME280;68477;42.698;23.342;2024-02-15T00:43:01;95819.72;;;3.90;65.32
79077;BME280;68477;42.698;23.342;2024-02-15T00:45:26;95820.28;;;3.71;64.97
79077;BME280;68477;42.698;23.342;2024-02-15T00:47:52;95823.50;;;3.86;65.18
79077;BME280;68477;42.698;23.342;2024-02-15T00:50:18;95817.66;;;3.60;65.71
79077;BME280;68477;42.698;23.342;2024-02-15T00:52:44;95816.63;;;3.74;65.35
79077;BME280;68477;42.698;23.342;2024-02-15T00:55:09;95808.94;;;3.95;64.79
79077;BME280;68477;42.698;23.342;2024-02-15T00:57:35;95814.38;;;3.92;64.95
79077;BME280;68477;42.698;23.342;2024-02-15T01:00:00;95816.88;;;3.82;64.51
79077;BME280;68477;42.698;23.342;2024-02-15T01:02:29;95819.44;;;3.71;65.30
79077;BME280;68477;42.698;23.342;2024-02-15T01:04:54;95817.22;;;3.77;64.64
79077;BME280;68477;42.698;23.342;2024-02-15T01:07:22;95813.44;;;3.82;64.80
79077;BME280;68477;42.698;23.342;2024-02-15T01:09:52;95821.22;;;3.70;65.79
79077;BME280;68477;42.698;23.342;2024-02-15T01:12:18;95808.34;;;3.91;64.60
79077;BME280;68477;42.698;23.342;2024-02-15T01:14:43;95817.34;;;3.87;64.95
79077;BME280;68477;42.698;23.342;2024-02-15T01:17:09;95816.53;;;3.75;65.80
79077;BME280;68477;42.698;23.342;2024-02-15T01:19:35;95813.53;;;3.58;66.17
79077;BME280;68477;42.698;23.342;2024-02-15T01:22:01;95812.84;;;3.67;65.33
79077;BME280;68477;42.698;23.342;2024-02-15T01:24:27;95811.88;;;3.57;66.88
79077;BME280;68477;42.698;23.342;2024-02-15T01:26:53;95816.59;;;3.52;65.98
79077;BME280;68477;42.698;23.342;2024-02-15T01:29:19;95810.09;;;3.57;65.78
79077;BME280;68477;42.698;23.342;2024-02-15T01:31:45;95810.13;;;3.79;65.52
79077;BME280;68477;42.698;23.342;2024-02-15T01:34:11;95812.47;;;3.71;65.74
79077;BME280;68477;42.698;23.342;2024-02-15T01:36:36;95811.31;;;3.75;65.55
79077;BME280;68477;42.698;23.342;2024-02-15T01:39:02;95820.94;;;3.51;66.55
79077;BME280;68477;42.698;23.342;2024-02-15T01:41:28;95811.06;;;3.78;64.75
79077;BME280;68477;42.698;23.342;2024-02-15T01:43:53;95805.63;;;3.70;65.66
79077;BME280;68477;42.698;23.342;2024-02-15T01:46:20;95814.72;;;3.65;65.87
79077;BME280;68477;42.698;23.342;2024-02-15T01:48:46;95813.53;;;3.69;65.79
79077;BME280;68477;42.698;23.342;2024-02-15T01:51:13;95808.34;;;3.80;65.56
79077;BME280;68477;42.698;23.342;2024-02-15T01:53:41;95823.38;;;3.65;64.57
79077;BME280;68477;42.698;23.342;2024-02-15T01:56:07;95815.06;;;3.60;65.24
79077;BME280;68477;42.698;23.342;2024-02-15T01:58:33;95813.91;;;3.75;64.91
79077;BME280;68477;42.698;23.342;2024-02-15T02:01:00;95819.09;;;3.53;65.44
79077;BME280;68477;42.698;23.342;2024-02-15T02:03:29;95815.75;;;3.51;66.23
79077;BME280;68477;42.698;23.342;2024-02-15T02:05:55;95816.50;;;3.64;65.33
79077;BME280;68477;42.698;23.342;2024-02-15T02:08:21;95819.78;;;3.55;65.91
79077;BME280;68477;42.698;23.342;2024-02-15T02:10:50;95817.66;;;3.60;66.25
79077;BME280;68477;42.698;23.342;2024-02-15T02:13:15;95816.72;;;3.72;64.90
79077;BME280;68477;42.698;23.342;2024-02-15T02:15:41;95825.81;;;3.56;65.45
79077;BME280;68477;42.698;23.342;2024-02-15T02:18:06;95821.59;;;3.66;64.78
79077;BME280;68477;42.698;23.342;2024-02-15T02:20:36;95826.94;;;3.29;66.97
79077;BME280;68477;42.698;23.342;2024-02-15T02:23:25;95830.06;;;3.57;65.88
79077;BME280;68477;42.698;23.342;2024-02-15T02:25:51;95828.53;;;3.54;66.33
79077;BME280;68477;42.698;23.342;2024-02-15T02:28:19;95817.44;;;3.63;66.44
79077;BME280;68477;42.698;23.342;2024-02-15T02:30:46;95826.28;;;3.61;66.31
79077;BME280;68477;42.698;23.342;2024-02-15T02:33:12;95833.84;;;3.41;66.59
79077;BME280;68477;42.698;23.342;2024-02-15T02:35:44;95828.75;;;3.51;66.05
79077;BME280;68477;42.698;23.342;2024-02-15T02:38:10;95833.13;;;3.50;66.02
79077;BME280;68477;42.698;23.342;2024-02-15T02:40:35;95834.09;;;3.61;66.50
79077;BME280;68477;42.698;23.342;2024-02-15T02:43:02;95833.13;;;3.50;66.25
79077;BME280;68477;42.698;23.342;2024-02-15T02:45:27;95828.88;;;3.61;65.58
79077;BME280;68477;42.698;23.342;2024-02-15T02:47:53;95831.38;;;3.62;65.76
79077;BME280;68477;42.698;23.342;2024-02-15T02:50:20;95838.84;;;3.67;67.18
79077;BME280;68477;42.698;23.342;2024-02-15T02:52:46;95837.19;;;3.66;66.05
79077;BME280;68477;42.698;23.342;2024-02-15T02:55:14;95834.69;;;3.53;65.90
79077;BME280;68477;42.698;23.342;2024-02-15T02:57:40;95831.44;;;3.38;66.80
79077;BME280;68477;42.698;23.342;2024-02-15T03:00:08;95824.13;;;3.32;67.14
79077;BME280;68477;42.698;23.342;2024-02-15T03:02:41;95843.06;;;3.45;67.73
79077;BME280;68477;42.698;23.342;2024-02-15T03:05:08;95836.47;;;3.17;67.57
79077;BME280;68477;42.698;23.342;2024-02-15T03:07:36;95842.63;;;3.28;66.83
79077;BME280;68477;42.698;23.342;2024-02-15T03:10:03;95837.94;;;3.33;67.38
79077;BME280;68477;42.698;23.342;2024-02-15T03:12:36;95844.69;;;3.35;67.00
79077;BME280;68477;42.698;23.342;2024-02-15T03:15:06;95840.38;;;3.23;68.35
79077;BME280;68477;42.698;23.342;2024-02-15T03:17:40;95847.97;;;3.37;67.73
79077;BME280;68477;42.698;23.342;2024-02-15T03:20:07;95849.31;;;3.08;68.49
79077;BME280;68477;42.698;23.342;2024-02-15T03:22:57;95854.16;;;3.12;68.99
79077;BME280;68477;42.698;23.342;2024-02-15T03:25:24;95851.75;;;3.33;67.50
79077;BME280;68477;42.698;23.342;2024-02-15T03:27:53;95857.56;;;3.37;67.32
79077;BME280;68477;42.698;23.342;2024-02-15T03:30:23;95863.09;;;3.32;67.75
79077;BME280;68477;42.698;23.342;2024-02-15T03:32:52;95863.19;;;3.19;69.12
79077;BME280;68477;42.698;23.342;2024-02-15T03:35:18;95859.41;;;3.24;68.24
79077;BME280;68477;42.698;23.342;2024-02-15T03:37:44;95860.19;;;3.13;66.94
79077;BME280;68477;42.698;23.342;2024-02-15T03:40:11;95855.50;;;3.18;68.80
79077;BME280;68477;42.698;23.342;2024-02-15T03:42:36;95856.22;;;3.20;67.29
79077;BME280;68477;42.698;23.342;2024-02-15T03:45:06;95853.81;;;3.17;68.17
79077;BME280;68477;42.698;23.342;2024-02-15T03:47:32;95855.50;;;3.18;68.32
79077;BME280;68477;42.698;23.342;2024-02-15T03:50:02;95853.94;;;3.15;68.38
79077;BME280;68477;42.698;23.342;2024-02-15T03:52:37;95863.13;;;3.08;68.81
79077;BME280;68477;42.698;23.342;2024-02-15T03:55:03;95860.38;;;2.99;68.73
79077;BME280;68477;42.698;23.342;2024-02-15T03:57:28;95858.81;;;2.96;68.83
79077;BME280;68477;42.698;23.342;2024-02-15T03:59:54;95854.50;;;3.08;67.73
79077;BME280;68477;42.698;23.342;2024-02-15T04:02:23;95851.44;;;3.14;68.73
79077;BME280;68477;42.698;23.342;2024-02-15T04:04:55;95852.34;;;3.02;67.89
79077;BME280;68477;42.698;23.342;2024-02-15T04:07:21;95859.59;;;3.09;69.07
79077;BME280;68477;42.698;23.342;2024-02-15T04:09:48;95859.97;;;2.92;68.53
79077;BME280;68477;42.698;23.342;2024-02-15T04:12:13;95865.56;;;2.75;70.13
79077;BME280;68477;42.698;23.342;2024-02-15T04:14:48;95866.44;;;3.10;68.09
79077;BME280;68477;42.698;23.342;2024-02-15T04:17:14;95866.03;;;3.04;68.60
79077;BME280;68477;42.698;23.342;2024-02-15T04:19:45;95865.16;;;3.16;67.93
79077;BME280;68477;42.698;23.342;2024-02-15T04:22:12;95866.03;;;3.04;68.19
79077;BME280;68477;42.698;23.342;2024-02-15T04:24:38;95868.75;;;3.02;69.17
79077;BME280;68477;42.698;23.342;2024-02-15T04:27:06;95862.47;;;3.17;69.03
79077;BME280;68477;42.698;23.342;2024-02-15T04:29:45;95862.91;;;3.11;68.30
79077;BME280;68477;42.698;23.342;2024-02-15T04:32:12;95866.75;;;2.82;68.77
79077;BME280;68477;42.698;23.342;2024-02-15T04:34:39;95860.09;;;2.90;69.04
79077;BME280;68477;42.698;23.342;2024-02-15T04:37:06;95861.38;;;2.85;67.62
79077;BME280;68477;42.698;23.342;2024-02-15T04:39:35;95858.53;;;2.88;69.68
79077;BME280;68477;42.698;23.342;2024-02-15T04:42:04;95865.78;;;2.96;69.64
79077;BME280;68477;42.698;23.342;2024-02-15T04:44:38;95869.88;;;2.87;69.19
79077;BME280;68477;42.698;23.342;2024-02-15T04:47:04;95884.03;;;3.07;67.82
79077;BME280;68477;42.698;23.342;2024-02-15T04:49:30;95879.22;;;2.89;68.11
79077;BME280;68477;42.698;23.342;2024-02-15T04:51:56;95880.72;;;2.68;70.84
79077;BME280;68477;42.698;23.342;2024-02-15T04:54:29;95887.53;;;2.95;68.21
79077;BME280;68477;42.698;23.342;2024-02-15T04:56:56;95886.16;;;3.13;68.80
79077;BME280;68477;42.698;23.342;2024-02-15T04:59:22;95888.13;;;2.98;69.38
79077;BME280;68477;42.698;23.342;2024-02-15T05:01:52;95890.13;;;2.82;69.37
79077;BME280;68477;42.698;23.342;2024-02-15T05:04:17;95896.41;;;3.03;67.62
79077;BME280;68477;42.698;23.342;2024-02-15T05:06:43;95898.75;;;3.19;68.59
79077;BME280;68477;42.698;23.342;2024-02-15T05:09:10;95899.56;;;2.96;68.95
79077;BME280;68477;42.698;23.342;2024-02-15T05:11:40;95900.88;;;2.77;69.34
79077;BME280;68477;42.698;23.342;2024-02-15T05:14:15;95895.84;;;2.87;69.74
79077;BME280;68477;42.698;23.342;2024-02-15T05:16:48;95908.84;;;2.87;70.10
79077;BME280;68477;42.698;23.342;2024-02-15T05:19:15;95904.09;;;2.68;69.81
79077;BME280;68477;42.698;23.342;2024-02-15T05:21:42;95902.00;;;2.86;70.17
79077;BME280;68477;42.698;23.342;2024-02-15T05:24:13;95902.06;;;2.97;69.11
79077;BME280;68477;42.698;23.342;2024-02-15T05:26:40;95907.91;;;2.88;68.63
79077;BME280;68477;42.698;23.342;2024-02-15T05:29:07;95906.78;;;2.79;70.97
79077;BME280;68477;42.698;23.342;2024-02-15T05:31:34;95904.56;;;2.62;71.72
79077;BME280;68477;42.698;23.342;2024-02-15T05:34:04;95908.78;;;2.76;69.82
79077;BME280;68477;42.698;23.342;2024-02-15T05:36:30;95914.91;;;2.75;71.46
79077;BME280;68477;42.698;23.342;2024-02-15T05:38:56;95914.03;;;2.87;68.38
79077;BME280;68477;42.698;23.342;2024-02-15T05:41:22;95926.63;;;2.80;69.52
79077;BME280;68477;42.698;23.342;2024-02-15T05:43:48;95935.97;;;2.70;69.40
79077;BME280;68477;42.698;23.342;2024-02-15T05:46:14;95926.75;;;2.66;70.38
79077;BME280;68477;42.698;23.342;2024-02-15T05:48:40;95927.31;;;2.82;68.82
79077;BME280;68477;42.698;23.342;2024-02-15T05:51:07;95932.22;;;2.87;69.29
79077;BME280;68477;42.698;23.342;2024-02-15T05:53:34;95934.88;;;2.98;68.14
79077;BME280;68477;42.698;23.342;2024-02-15T05:56:07;95934.97;;;2.60;71.75
79077;BME280;68477;42.698;23.342;2024-02-15T05:58:33;95935.88;;;2.72;69.36
79077;BME280;68477;42.698;23.342;2024-02-15T06:01:01;95941.25;;;2.81;69.42
79077;BME280;68477;42.698;23.342;2024-02-15T06:03:31;95938.81;;;2.67;69.67
79077;BME280;68477;42.698;23.342;2024-02-15T06:06:03;95941.78;;;2.86;70.39
79077;BME280;68477;42.698;23.342;2024-02-15T06:08:35;95941.13;;;2.96;68.29
79077;BME280;68477;42.698;23.342;2024-02-15T06:11:01;95943.16;;;3.03;69.59
79077;BME280;68477;42.698;23.342;2024-02-15T06:13:27;95948.25;;;3.05;68.43
79077;BME280;68477;42.698;23.342;2024-02-15T06:15:54;95954.53;;;2.89;69.53
79077;BME280;68477;42.698;23.342;2024-02-15T06:18:22;95949.19;;;3.04;68.78
79077;BME280;68477;42.698;23.342;2024-02-15T06:20:53;95954.38;;;3.04;69.05
79077;BME280;68477;42.698;23.342;2024-02-15T06:23:19;95963.13;;;3.03;68.75
79077;BME280;68477;42.698;23.342;2024-02-15T06:25:46;95969.22;;;3.14;69.20
79077;BME280;68477;42.698;23.342;2024-02-15T06:28:16;95969.06;;;2.92;69.43
79077;BME280;68477;42.698;23.342;2024-02-15T06:31:05;95976.63;;;3.08;69.23
79077;BME280;68477;42.698;23.342;2024-02-15T06:33:49;95967.44;;;3.15;68.41
79077;BME280;68477;42.698;23.342;2024-02-15T06:36:33;95968.06;;;2.95;68.67
79077;BME280;68477;42.698;23.342;2024-02-15T06:39:17;95969.97;;;3.04;67.94
79077;BME280;68477;42.698;23.342;2024-02-15T06:42:01;95973.44;;;2.91;69.88
79077;BME280;68477;42.698;23.342;2024-02-15T06:44:27;95978.84;;;3.25;68.98
79077;BME280;68477;42.698;23.342;2024-02-15T06:46:53;95981.22;;;3.28;69.03
79077;BME280;68477;42.698;23.342;2024-02-15T06:49:19;95986.00;;;3.34;67.71
79077;BME280;68477;42.698;23.342;2024-02-15T06:51:49;95989.31;;;3.36;68.77
79077;BME280;68477;42.698;23.342;2024-02-15T06:54:16;95986.47;;;3.39;66.97
79077;BME280;68477;42.698;23.342;2024-02-15T06:56:45;95994.44;;;3.25;67.60
79077;BME280;68477;42.698;23.342;2024-02-15T06:59:14;95984.34;;;3.57;67.78
79077;BME280;68477;42.698;23.342;2024-02-15T07:01:43;95986.59;;;3.86;66.58
79077;BME280;68477;42.698;23.342;2024-02-15T07:04:09;95981.22;;;3.76;65.93
79077;BME280;68477;42.698;23.342;2024-02-15T07:06:37;95982.44;;;4.41;64.22
79077;BME280;68477;42.698;23.342;2024-02-15T07:09:03;95985.44;;;4.81;63.89
79077;BME280;68477;42.698;23.342;2024-02-15T07:11:34;95976.22;;;4.65;62.85
79077;BME280;68477;42.698;23.342;2024-02-15T07:14:01;95978.31;;;4.72;62.04
79077;BME280;68477;42.698;23.342;2024-02-15T07:16:26;95980.19;;;5.25;62.01
79077;BME280;68477;42.698;23.342;2024-02-15T07:18:52;95965.63;;;5.23;60.13
79077;BME280;68477;42.698;23.342;2024-02-15T07:21:19;95980.16;;;5.37;60.69
79077;BME280;68477;42.698;23.342;2024-02-15T07:23:48;95980.44;;;5.54;61.07
79077;BME280;68477;42.698;23.342;2024-02-15T07:26:13;95976.69;;;6.11;58.73
79077;BME280;68477;42.698;23.342;2024-02-15T07:28:40;95974.56;;;5.41;58.36
79077;BME280;68477;42.698;23.342;2024-02-15T07:31:06;95976.72;;;5.36;61.29
79077;BME280;68477;42.698;23.342;2024-02-15T07:33:32;95977.41;;;6.34;57.66
79077;BME280;68477;42.698;23.342;2024-02-15T07:35:57;95971.34;;;5.81;58.47
79077;BME280;68477;42.698;23.342;2024-02-15T07:38:23;95966.06;;;6.03;58.35
79077;BME280;68477;42.698;23.342;2024-02-15T07:40:50;95963.78;;;5.46;58.51
79077;BME280;68477;42.698;23.342;2024-02-15T07:43:16;95969.88;;;6.41;58.01
79077;BME280;68477;42.698;23.342;2024-02-15T07:45:42;95967.63;;;6.57;55.61
79077;BME280;68477;42.698;23.342;2024-02-15T07:48:08;95958.50;;;6.82;55.74
79077;BME280;68477;42.698;23.342;2024-02-15T07:50:34;95969.66;;;6.84;55.69
79077;BME280;68477;42.698;23.342;2024-02-15T07:53:03;95965.13;;;6.86;55.64
79077;BME280;68477;42.698;23.342;2024-02-15T07:55:28;95959.78;;;7.47;53.50
79077;BME280;68477;42.698;23.342;2024-02-15T07:57:54;95963.34;;;7.27;53.79
79077;BME280;68477;42.698;23.342;2024-02-15T08:00:21;95966.09;;;7.25;54.00
79077;BME280;68477;42.698;23.342;2024-02-15T08:02:46;95961.31;;;7.50;54.92
79077;BME280;68477;42.698;23.342;2024-02-15T08:05:12;95964.34;;;7.65;53.60
79077;BME280;68477;42.698;23.342;2024-02-15T08:07:44;95956.06;;;7.69;53.54
79077;BME280;68477;42.698;23.342;2024-02-15T08:10:11;95952.19;;;7.35;53.17
79077;BME280;68477;42.698;23.342;2024-02-15T08:12:44;95956.59;;;8.50;50.97
79077;BME280;68477;42.698;23.342;2024-02-15T08:15:11;95950.28;;;7.66;52.39
79077;BME280;68477;42.698;23.342;2024-02-15T08:17:41;95948.81;;;7.13;54.23
79077;BME280;68477;42.698;23.342;2024-02-15T08:20:09;95948.34;;;7.68;52.87
79077;BME280;68477;42.698;23.342;2024-02-15T08:22:35;95947.09;;;7.43;53.26
79077;BME280;68477;42.698;23.342;2024-02-15T08:25:11;95953.03;;;8.41;51.56
79077;BME280;68477;42.698;23.342;2024-02-15T08:27:38;95942.91;;;9.21;49.90
79077;BME280;68477;42.698;23.342;2024-02-15T08:30:08;95948.66;;;9.07;48.26
79077;BME280;68477;42.698;23.342;2024-02-15T08:32:35;95948.59;;;8.42;50.99
79077;BME280;68477;42.698;23.342;2024-02-15T08:35:00;95954.91;;;8.59;49.90
79077;BME280;68477;42.698;23.342;2024-02-15T08:37:26;95942.72;;;9.32;47.59
79077;BME280;68477;42.698;23.342;2024-02-15T08:39:51;95949.41;;;8.62;49.22
79077;BME280;68477;42.698;23.342;2024-02-15T08:42:18;95948.91;;;8.76;48.27
79077;BME280;68477;42.698;23.342;2024-02-15T08:44:48;95940.34;;;9.56;47.67
79077;BME280;68477;42.698;23.342;2024-02-15T08:47:13;95940.97;;;8.95;48.57
79077;BME280;68477;42.698;23.342;2024-02-15T08:49:39;95943.13;;;9.27;47.72
79077;BME280;68477;42.698;23.342;2024-02-15T08:52:06;95940.09;;;9.50;47.82
79077;BME280;68477;42.698;23.342;2024-02-15T08:54:33;95943.63;;;10.30;44.72
79077;BME280;68477;42.698;23.342;2024-02-15T08:56:59;95940.41;;;9.82;45.90
79077;BME280;68477;42.698;23.342;2024-02-15T08:59:26;95935.78;;;10.38;45.19
79077;BME280;68477;42.698;23.342;2024-02-15T09:01:55;95938.28;;;10.65;44.68
79077;BME280;68477;42.698;23.342;2024-02-15T09:04:22;95937.16;;;10.42;43.91
79077;BME280;68477;42.698;23.342;2024-02-15T09:06:50;95935.06;;;10.79;43.15
79077;BME280;68477;42.698;23.342;2024-02-15T09:09:16;95943.19;;;10.94;43.38
79077;BME280;68477;42.698;23.342;2024-02-15T09:11:42;95933.25;;;11.14;43.60
79077;BME280;68477;42.698;23.342;2024-02-15T09:14:07;95936.72;;;11.15;41.98
79077;BME280;68477;42.698;23.342;2024-02-15T09:16:37;95931.16;;;10.32;44.26
79077;BME280;68477;42.698;23.342;2024-02-15T09:19:04;95923.22;;;10.49;44.24
79077;BME280;68477;42.698;23.342;2024-02-15T09:21:31;95926.69;;;10.84;44.03
79077;BME280;68477;42.698;23.342;2024-02-15T09:23:59;95919.56;;;11.77;42.38
79077;BME280;68477;42.698;23.342;2024-02-15T09:26:24;95920.88;;;11.73;42.23
79077;BME280;68477;42.698;23.342;2024-02-15T09:28:50;95918.84;;;10.58;42.19
79077;BME280;68477;42.698;23.342;2024-02-15T09:31:15;95921.47;;;11.43;42.16
79077;BME280;68477;42.698;23.342;2024-02-15T09:33:41;95919.88;;;11.58;41.18
79077;BME280;68477;42.698;23.342;2024-02-15T09:36:07;95917.16;;;12.00;41.44
79077;BME280;68477;42.698;23.342;2024-02-15T09:38:33;95914.44;;;11.51;41.04
79077;BME280;68477;42.698;23.342;2024-02-15T09:40:59;95920.16;;;10.96;42.05
79077;BME280;68477;42.698;23.342;2024-02-15T09:43:24;95903.06;;;11.51;39.90
79077;BME280;68477;42.698;23.342;2024-02-15T09:45:52;95906.97;;;11.30;41.47
79077;BME280;68477;42.698;23.342;2024-02-15T09:48:18;95905.81;;;10.83;43.88
79077;BME280;68477;42.698;23.342;2024-02-15T09:50:45;95909.19;;;9.79;46.09
79077;BME280;68477;42.698;23.342;2024-02-15T09:53:12;95906.38;;;11.45;41.20
79077;BME280;68477;42.698;23.342;2024-02-15T09:55:40;95907.22;;;11.78;40.82
79077;BME280;68477;42.698;23.342;2024-02-15T09:58:08;95901.78;;;11.71;39.81
79077;BME280;68477;42.698;23.342;2024-02-15T10:00:35;95898.69;;;11.17;41.29
79077;BME280;68477;42.698;23.342;2024-02-15T10:03:02;95897.13;;;10.56;45.01
79077;BME280;68477;42.698;23.342;2024-02-15T10:05:30;95893.72;;;12.38;40.91
79077;BME280;68477;42.698;23.342;2024-02-15T10:07:56;95890.25;;;11.56;40.32
79077;BME280;68477;42.698;23.342;2024-02-15T10:10:23;95886.78;;;10.97;41.15
79077;BME280;68477;42.698;23.342;2024-02-15T10:12:51;95889.78;;;12.97;37.52
79077;BME280;68477;42.698;23.342;2024-02-15T10:15:38;95879.84;;;12.99;38.90
79077;BME280;68477;42.698;23.342;2024-02-15T10:18:07;95889.53;;;13.15;37.75
79077;BME280;68477;42.698;23.342;2024-02-15T10:20:34;95871.84;;;12.76;38.05
79077;BME280;68477;42.698;23.342;2024-02-15T10:25:34;95856.06;;;13.07;37.96
79077;BME280;68477;42.698;23.342;2024-02-15T10:28:09;95857.09;;;12.51;38.55
79077;BME280;68477;42.698;23.342;2024-02-15T10:30:40;95850.56;;;12.78;38.38
79077;BME280;68477;42.698;23.342;2024-02-15T10:33:09;95853.25;;;13.09;37.11
79077;BME280;68477;42.698;23.342;2024-02-15T10:35:35;95850.63;;;13.01;37.14
79077;BME280;68477;42.698;23.342;2024-02-15T10:40:33;95852.78;;;13.05;37.87
79077;BME280;68477;42.698;23.342;2024-02-15T10:42:59;95839.75;;;13.81;36.50
79077;BME280;68477;42.698;23.342;2024-02-15T10:45:25;95848.78;;;11.90;38.54
79077;BME280;68477;42.698;23.342;2024-02-15T10:47:51;95831.53;;;13.30;37.12
79077;BME280;68477;42.698;23.342;2024-02-15T10:50:17;95839.94;;;13.79;36.35
79077;BME280;68477;42.698;23.342;2024-02-15T10:53:08;95838.06;;;13.42;36.30
79077;BME280;68477;42.698;23.342;2024-02-15T10:55:40;95831.88;;;13.95;34.95
79077;BME280;68477;42.698;23.342;2024-02-15T10:58:13;95828.25;;;13.28;36.16
79077;BME280;68477;42.698;23.342;2024-02-15T11:00:43;95833.00;;;13.32;35.95
79077;BME280;68477;42.698;23.342;2024-02-15T11:03:25;95826.28;;;13.90;36.63
79077;BME280;68477;42.698;23.342;2024-02-15T11:05:52;95826.22;;;13.61;36.06
79077;BME280;68477;42.698;23.342;2024-02-15T11:08:20;95825.53;;;13.59;36.78
79077;BME280;68477;42.698;23.342;2024-02-15T11:10:48;95820.31;;;13.74;36.97
79077;BME280;68477;42.698;23.342;2024-02-15T11:13:14;95822.88;;;14.05;35.87
79077;BME280;68477;42.698;23.342;2024-02-15T11:15:47;95815.44;;;12.77;37.39
79077;BME280;68477;42.698;23.342;2024-02-15T11:18:46;95813.88;;;13.30;37.44
79077;BME280;68477;42.698;23.342;2024-02-15T11:21:53;95810.41;;;14.28;34.97
79077;BME280;68477;42.698;23.342;2024-02-15T11:24:27;95812.91;;;13.69;36.61
79077;BME280;68477;42.698;23.342;2024-02-15T11:26:58;95815.59;;;14.21;35.19
79077;BME280;68477;42.698;23.342;2024-02-15T11:29:55;95815.25;;;14.39;34.15
79077;BME280;68477;42.698;23.342;2024-02-15T11:32:37;95811.00;;;13.40;36.42
79077;BME280;68477;42.698;23.342;2024-02-15T11:35:15;95812.16;;;14.80;34.37
79077;BME280;68477;42.698;23.342;2024-02-15T11:40:23;95802.72;;;15.86;32.46
79077;BME280;68477;42.698;23.342;2024-02-15T11:42:55;95808.50;;;17.41;30.57
79077;BME280;68477;42.698;23.342;2024-02-15T11:45:41;95804.59;;;17.43;30.62
79077;BME280;68477;42.698;23.342;2024-02-15T11:48:08;95802.06;;;16.40;30.34
79077;BME280;68477;42.698;23.342;2024-02-15T11:50:38;95795.03;;;16.88;30.28
79077;BME280;68477;42.698;23.342;2024-02-15T11:53:08;95800.09;;;16.83;31.05
79077;BME280;68477;42.698;23.342;2024-02-15T11:55:35;95796.03;;;16.87;31.03
79077;BME280;68477;42.698;23.342;2024-02-15T11:58:02;95797.53;;;17.03;31.03
79077;BME280;68477;42.698;23.342;2024-02-15T12:00:30;95794.69;;;17.04;30.61
79077;BME280;68477;42.698;23.342;2024-02-15T12:03:15;95795.44;;;17.66;29.12
79077;BME280;68477;42.698;23.342;2024-02-15T12:05:59;95783.38;;;16.89;30.68
79077;BME280;68477;42.698;23.342;2024-02-15T12:08:47;95789.56;;;15.35;32.74
79077;BME280;68477;42.698;23.342;2024-02-15T12:11:31;95790.13;;;15.94;32.12
79077;BME280;68477;42.698;23.342;2024-02-15T12:17:38;95779.06;;;17.56;30.69
79077;BME280;68477;42.698;23.342;2024-02-15T12:20:21;95774.41;;;16.90;30.71
79077;BME280;68477;42.698;23.342;2024-02-15T12:22:51;95777.78;;;17.25;29.89
79077;BME280;68477;42.698;23.342;2024-02-15T12:25:18;95778.91;;;17.84;30.19
79077;BME280;68477;42.698;23.342;2024-02-15T12:27:52;95775.22;;;17.98;28.96
79077;BME280;68477;42.698;23.342;2024-02-15T12:30:19;95768.16;;;16.70;32.29
79077;BME280;68477;42.698;23.342;2024-02-15T12:32:51;95772.50;;;17.38;30.91
79077;BME280;68477;42.698;23.342;2024-02-15T12:35:19;95775.31;;;17.30;30.95
79077;BME280;68477;42.698;23.342;2024-02-15T12:37:46;95763.31;;;16.86;31.61
79077;BME280;68477;42.698;23.342;2024-02-15T12:40:18;95770.78;;;17.11;31.25
79077;BME280;68477;42.698;23.342;2024-02-15T12:42:44;95766.25;;;17.79;29.29
79077;BME280;68477;42.698;23.342;2024-02-15T12:45:25;95759.03;;;17.60;29.78
79077;BME280;68477;42.698;23.342;2024-02-15T12:47:53;95759.22;;;17.58;30.93
79077;BME280;68477;42.698;23.342;2024-02-15T12:50:21;95765.41;;;17.98;28.96
79077;BME280;68477;42.698;23.342;2024-02-15T12:52:47;95762.13;;;16.89;31.26
79077;BME280;68477;42.698;23.342;2024-02-15T12:55:18;95753.00;;;17.18;30.15
79077;BME280;68477;42.698;23.342;2024-02-15T12:57:49;95752.94;;;17.79;29.77
79077;BME280;68477;42.698;23.342;2024-02-15T13:00:19;95752.63;;;17.41;29.79
79077;BME280;68477;42.698;23.342;2024-02-15T13:02:47;95753.06;;;16.70;31.39
79077;BME280;68477;42.698;23.342;2024-02-15T13:05:22;95744.00;;;17.19;30.47
79077;BME280;68477;42.698;23.342;2024-02-15T13:07:50;95745.97;;;16.49;31.29
79077;BME280;68477;42.698;23.342;2024-02-15T13:10:16;95742.00;;;15.97;32.67
79077;BME280;68477;42.698;23.342;2024-02-15T13:12:45;95755.47;;;15.10;34.44
79077;BME280;68477;42.698;23.342;2024-02-15T13:15:15;95756.84;;;15.64;34.67
79077;BME280;68477;42.698;23.342;2024-02-15T13:17:46;95738.44;;;13.65;36.04